createdAt,value
2022-11-29T00:01:35.922Z,9.52
2022-11-29T00:04:05.892Z,9.27
2022-11-29T00:06:36.033Z,7.28
2022-11-29T00:09:07.626Z,7.60
2022-11-29T00:11:54.928Z,8.43
2022-11-29T00:14:24.390Z,8.38
2022-11-29T00:16:54.663Z,7.25
2022-11-29T00:19:24.347Z,7.63
2022-11-29T00:21:52.600Z,11.23
2022-11-29T00:24:21.140Z,8.35
2022-11-29T00:26:49.538Z,8.23
2022-11-29T00:29:17.922Z,7.13
2022-11-29T00:31:46.725Z,8.52
2022-11-29T00:34:15.164Z,8.43
2022-11-29T00:36:44.742Z,8.55
2022-11-29T00:39:13.689Z,8.65
2022-11-29T00:41:41.971Z,7.88
2022-11-29T00:44:15.326Z,7.20
2022-11-29T00:46:46.775Z,10.05
2022-11-29T00:49:15.037Z,9.85
2022-11-29T00:51:44.601Z,7.30
2022-11-29T00:54:12.886Z,8.60
2022-11-29T00:56:41.076Z,6.07
2022-11-29T00:59:10.084Z,8.18
2022-11-29T01:01:38.282Z,7.10
2022-11-29T01:04:06.746Z,7.13
2022-11-29T01:06:34.946Z,7.90
2022-11-29T01:09:04.775Z,7.32
2022-11-29T01:11:32.991Z,7.88
2022-11-29T01:14:03.192Z,7.32
2022-11-29T01:16:32.714Z,7.03
2022-11-29T01:19:01.050Z,8.27
2022-11-29T01:21:29.482Z,7.05
2022-11-29T01:23:58.265Z,11.27
2022-11-29T01:26:30.328Z,12.40
2022-11-29T01:28:59.287Z,14.38
2022-11-29T01:31:29.730Z,11.90
2022-11-29T01:34:00.381Z,17.27
2022-11-29T01:36:28.981Z,16.50
2022-11-29T01:38:57.251Z,17.27
2022-11-29T01:41:28.964Z,20.08
2022-11-29T01:46:33.197Z,18.27
2022-11-29T01:49:06.556Z,20.10
2022-11-29T01:51:36.973Z,19.30
2022-11-29T01:54:06.078Z,23.98
2022-11-29T01:56:36.679Z,20.17
2022-11-29T01:59:08.914Z,21.27
2022-11-29T02:01:37.949Z,19.27
2022-11-29T02:04:07.112Z,19.20
2022-11-29T02:06:36.349Z,18.70
2022-11-29T02:09:04.814Z,17.95
2022-11-29T02:12:01.471Z,18.52
2022-11-29T02:14:48.695Z,22.70
2022-11-29T02:17:26.058Z,20.63
2022-11-29T02:20:32.290Z,20.17
2022-11-29T02:23:08.886Z,17.33
2022-11-29T02:25:53.160Z,18.58
2022-11-29T02:28:51.060Z,20.90
2022-11-29T02:31:59.470Z,19.17
2022-11-29T02:34:55.595Z,15.93
2022-11-29T02:37:48.558Z,17.45
2022-11-29T02:40:32.483Z,16.95
2022-11-29T02:43:28.023Z,17.50
2022-11-29T02:46:11.231Z,19.38
2022-11-29T02:48:56.888Z,15.43
2022-11-29T02:51:32.964Z,17.63
2022-11-29T02:54:07.488Z,18.33
2022-11-29T02:56:41.999Z,17.63
2022-11-29T02:59:17.956Z,19.88
2022-11-29T03:01:54.501Z,19.90
2022-11-29T03:04:29.968Z,20.80
2022-11-29T03:07:06.726Z,16.77
2022-11-29T03:09:41.152Z,21.50
2022-11-29T03:12:19.983Z,16.90
2022-11-29T03:14:58.354Z,17.13
2022-11-29T03:17:38.791Z,18.83
2022-11-29T03:20:24.547Z,17.00
2022-11-29T03:23:10.951Z,18.10
2022-11-29T03:25:43.264Z,17.58
2022-11-29T03:28:16.388Z,19.80
2022-11-29T03:30:50.166Z,15.23
2022-11-29T03:33:25.930Z,13.75
2022-11-29T03:36:01.760Z,13.10
2022-11-29T03:38:40.004Z,10.95
2022-11-29T03:41:18.856Z,15.55
2022-11-29T03:43:53.377Z,16.20
2022-11-29T03:46:30.132Z,14.48
2022-11-29T03:49:04.610Z,14.50
2022-11-29T03:51:50.498Z,14.40
2022-11-29T03:54:26.672Z,15.57
2022-11-29T03:56:55.896Z,16.38
2022-11-29T03:59:35.442Z,14.82
2022-11-29T04:02:40.697Z,18.90
2022-11-29T04:05:35.490Z,15.43
2022-11-29T04:08:46.435Z,15.52
2022-11-29T04:11:59.251Z,14.00
2022-11-29T04:14:45.899Z,17.70
2022-11-29T04:17:55.819Z,14.18
2022-11-29T04:20:56.639Z,15.50
2022-11-29T04:23:46.735Z,13.70
2022-11-29T04:26:49.119Z,14.00
2022-11-29T04:29:29.864Z,13.52
2022-11-29T04:32:20.938Z,14.52
2022-11-29T04:35:02.891Z,15.03
2022-11-29T04:38:04.951Z,14.55
2022-11-29T04:40:54.752Z,15.23
2022-11-29T04:44:02.279Z,15.35
2022-11-29T04:46:58.892Z,15.10
2022-11-29T04:49:49.469Z,14.98
2022-11-29T04:52:43.839Z,16.27
2022-11-29T04:55:30.486Z,17.00
2022-11-29T04:58:04.702Z,15.82
2022-11-29T05:00:46.727Z,17.75
2022-11-29T05:03:26.616Z,17.35
2022-11-29T05:06:01.750Z,14.80
2022-11-29T05:08:41.303Z,16.25
2022-11-29T05:11:18.863Z,16.10
2022-11-29T05:13:57.394Z,18.20
2022-11-29T05:16:47.221Z,19.17
2022-11-29T05:19:30.731Z,16.75
2022-11-29T05:22:07.509Z,15.32
2022-11-29T05:24:53.657Z,18.88
2022-11-29T05:27:32.330Z,18.83
2022-11-29T05:30:09.197Z,17.88
2022-11-29T05:32:52.228Z,18.25
2022-11-29T05:35:48.463Z,15.13
2022-11-29T05:38:32.001Z,16.98
2022-11-29T05:41:14.578Z,17.92
2022-11-29T05:44:04.712Z,16.25
2022-11-29T05:46:41.049Z,14.50
2022-11-29T05:49:22.215Z,13.45
2022-11-29T05:51:59.508Z,17.42
2022-11-29T05:54:33.689Z,14.15
2022-11-29T05:57:11.780Z,34.60
2022-11-29T05:59:42.319Z,35.17
2022-11-29T06:02:21.851Z,30.67
2022-11-29T06:05:04.645Z,27.92
2022-11-29T06:07:40.339Z,20.73
2022-11-29T06:10:13.771Z,22.88
2022-11-29T06:12:44.761Z,20.90
2022-11-29T06:15:47.590Z,15.68
2022-11-29T06:18:29.931Z,11.90
2022-11-29T06:21:17.008Z,9.45
2022-11-29T06:24:10.356Z,8.75
2022-11-29T06:26:50.936Z,9.55
2022-11-29T06:29:26.008Z,8.10
2022-11-29T06:32:01.712Z,6.88
2022-11-29T06:34:40.365Z,7.00
2022-11-29T06:37:18.339Z,10.32
2022-11-29T06:39:46.983Z,8.40
2022-11-29T06:42:15.146Z,9.63
2022-11-29T06:44:44.169Z,7.10
2022-11-29T06:47:20.375Z,7.75
2022-11-29T06:49:52.263Z,8.13
2022-11-29T06:52:32.097Z,7.72
2022-11-29T06:55:15.439Z,7.43
2022-11-29T06:58:01.803Z,7.15
2022-11-29T07:00:38.589Z,6.15
2022-11-29T07:03:39.153Z,6.55
2022-11-29T07:06:16.512Z,8.13
2022-11-29T07:08:47.160Z,8.48
2022-11-29T07:11:16.226Z,7.35
2022-11-29T07:13:45.076Z,7.20
2022-11-29T07:16:22.570Z,7.93
2022-11-29T07:18:58.935Z,7.68
2022-11-29T07:21:46.189Z,6.55
2022-11-29T07:24:27.027Z,10.73
2022-11-29T07:27:03.702Z,8.90
2022-11-29T07:29:40.331Z,8.00
2022-11-29T07:32:17.351Z,9.50
2022-11-29T07:34:55.457Z,8.00
2022-11-29T07:37:31.738Z,8.70
2022-11-29T07:40:05.731Z,10.77
2022-11-29T07:42:44.127Z,8.32
2022-11-29T07:45:18.572Z,9.43
2022-11-29T07:47:46.972Z,11.05
2022-11-29T07:50:15.590Z,11.77
2022-11-29T07:52:43.834Z,13.55
2022-11-29T07:55:18.980Z,15.55
2022-11-29T07:57:47.430Z,27.52
2022-11-29T08:00:16.895Z,16.40
2022-11-29T08:02:45.183Z,16.58
2022-11-29T08:05:14.029Z,20.00
2022-11-29T08:07:42.905Z,15.35
2022-11-29T08:10:15.775Z,13.73
2022-11-29T08:12:45.076Z,16.83
2022-11-29T08:15:13.410Z,17.20
2022-11-29T08:17:41.788Z,17.30
2022-11-29T08:20:11.343Z,15.40
2022-11-29T08:22:39.713Z,16.55
2022-11-29T08:25:09.529Z,12.57
2022-11-29T08:27:39.860Z,17.88
2022-11-29T08:30:09.267Z,10.77
2022-11-29T08:32:37.558Z,12.82
2022-11-29T08:35:06.163Z,12.52
2022-11-29T08:37:34.358Z,15.07
2022-11-29T08:40:04.636Z,15.63
2022-11-29T08:42:32.839Z,12.85
2022-11-29T08:45:02.433Z,13.38
2022-11-29T08:47:40.236Z,13.63
2022-11-29T08:50:12.360Z,17.10
2022-11-29T08:53:01.050Z,16.67
2022-11-29T08:55:32.869Z,12.57
2022-11-29T08:58:06.703Z,14.52
2022-11-29T09:00:36.519Z,13.77
2022-11-29T09:03:24.092Z,15.43
2022-11-29T09:05:52.870Z,15.13
2022-11-29T09:08:21.288Z,15.55
2022-11-29T09:10:50.205Z,14.30
2022-11-29T09:13:18.743Z,13.27
2022-11-29T09:15:48.503Z,15.57
2022-11-29T09:18:16.724Z,13.00
2022-11-29T09:20:45.350Z,14.38
2022-11-29T09:23:14.124Z,14.25
2022-11-29T09:25:42.283Z,11.40
2022-11-29T09:28:11.545Z,14.88
2022-11-29T09:30:39.715Z,11.93
2022-11-29T09:33:09.268Z,16.35
2022-11-29T09:35:37.505Z,14.00
2022-11-29T09:38:05.862Z,13.23
2022-11-29T09:40:42.568Z,12.27
2022-11-29T09:43:23.209Z,14.00
2022-11-29T09:45:58.371Z,15.43
2022-11-29T09:48:52.616Z,16.27
2022-11-29T09:51:28.122Z,14.10
2022-11-29T09:54:12.262Z,13.50
2022-11-29T09:56:43.280Z,14.63
2022-11-29T09:59:15.555Z,12.55
2022-11-29T10:01:47.634Z,15.23
2022-11-29T10:04:20.284Z,13.85
2022-11-29T10:06:55.980Z,12.18
2022-11-29T10:09:33.352Z,13.65
2022-11-29T10:12:11.625Z,12.90
2022-11-29T10:14:47.441Z,14.70
2022-11-29T10:17:29.584Z,11.88
2022-11-29T10:20:03.627Z,13.13
2022-11-29T10:22:41.790Z,11.80
2022-11-29T10:25:16.875Z,10.60
2022-11-29T10:27:45.087Z,14.35
2022-11-29T10:30:17.210Z,12.10
2022-11-29T10:32:48.672Z,10.80
2022-11-29T10:35:20.804Z,9.82
2022-11-29T10:38:14.463Z,12.55
2022-11-29T10:40:43.705Z,10.95
2022-11-29T10:43:11.968Z,11.18
2022-11-29T10:45:45.874Z,12.23
2022-11-29T10:48:17.348Z,12.27
2022-11-29T10:50:49.510Z,13.25
2022-11-29T10:53:20.889Z,10.98
2022-11-29T10:55:54.680Z,9.43
2022-11-29T10:58:28.455Z,8.90
2022-11-29T11:00:59.561Z,10.32
2022-11-29T11:03:36.838Z,10.30
2022-11-29T11:06:13.407Z,10.23
2022-11-29T11:08:44.788Z,10.15
2022-11-29T11:11:14.250Z,9.35
2022-11-29T11:13:43.043Z,8.02
2022-11-29T11:16:18.084Z,8.27
2022-11-29T11:18:47.976Z,11.48
2022-11-29T11:21:20.027Z,10.50
2022-11-29T11:23:58.040Z,7.80
2022-11-29T11:26:27.308Z,9.23
2022-11-29T11:28:59.695Z,10.18
2022-11-29T11:31:31.944Z,10.88
2022-11-29T11:34:26.367Z,10.50
2022-11-29T11:37:12.148Z,8.98
2022-11-29T11:39:40.345Z,11.82
2022-11-29T11:42:30.084Z,10.00
2022-11-29T11:44:58.981Z,8.43
2022-11-29T11:47:29.553Z,10.07
2022-11-29T11:50:08.822Z,9.50
2022-11-29T11:52:50.125Z,10.63
2022-11-29T11:55:31.813Z,9.95
2022-11-29T11:58:10.101Z,9.95
2022-11-29T12:01:03.380Z,7.93
2022-11-29T12:03:41.040Z,12.10
2022-11-29T12:06:32.934Z,8.93
2022-11-29T12:09:07.030Z,10.43
2022-11-29T12:11:43.131Z,11.75
2022-11-29T12:14:19.336Z,9.65
2022-11-29T12:16:50.399Z,9.38
2022-11-29T12:19:23.109Z,8.00
2022-11-29T12:21:57.024Z,10.02
2022-11-29T12:24:33.881Z,9.43
2022-11-29T12:27:06.167Z,7.70
2022-11-29T12:29:36.027Z,7.40
2022-11-29T12:32:30.276Z,5.25
2022-11-29T12:35:19.353Z,6.25
2022-11-29T12:37:56.648Z,7.82
2022-11-29T12:40:33.032Z,3.75
2022-11-29T12:43:12.811Z,6.60
2022-11-29T12:45:48.471Z,4.35
2022-11-29T12:48:30.248Z,5.50
2022-11-29T12:51:07.772Z,5.45
2022-11-29T12:53:55.314Z,6.88
2022-11-29T12:56:28.237Z,5.78
2022-11-29T12:59:14.328Z,6.35
2022-11-29T13:02:01.877Z,6.53
2022-11-29T13:04:39.065Z,4.07
2022-11-29T13:07:17.337Z,4.40
2022-11-29T13:09:59.133Z,4.82
2022-11-29T13:12:36.535Z,6.78
2022-11-29T13:15:09.897Z,4.07
2022-11-29T13:17:46.979Z,6.15
2022-11-29T13:20:31.884Z,4.88
2022-11-29T13:23:12.816Z,5.07
2022-11-29T13:25:43.970Z,5.37
2022-11-29T13:28:25.232Z,4.60
2022-11-29T13:30:56.390Z,9.02
2022-11-29T13:33:29.785Z,4.60
2022-11-29T13:36:02.483Z,5.72
2022-11-29T13:38:36.652Z,4.75
2022-11-29T13:41:13.680Z,6.90
2022-11-29T13:43:47.327Z,5.10
2022-11-29T13:46:24.100Z,6.60
2022-11-29T13:48:53.987Z,3.65
2022-11-29T13:51:29.350Z,6.95
2022-11-29T13:53:59.407Z,6.25
2022-11-29T13:56:32.888Z,5.82
2022-11-29T13:59:06.922Z,5.55
2022-11-29T14:01:45.666Z,5.50
2022-11-29T14:04:25.792Z,5.53
2022-11-29T14:07:08.590Z,9.73
2022-11-29T14:09:54.011Z,12.75
2022-11-29T14:12:37.137Z,7.10
2022-11-29T14:15:19.309Z,6.60
2022-11-29T14:17:56.432Z,4.88
2022-11-29T14:21:01.314Z,3.90
2022-11-29T14:23:38.189Z,9.60
2022-11-29T14:26:28.621Z,4.72
2022-11-29T14:28:57.856Z,7.30
2022-11-29T14:31:54.439Z,5.30
2022-11-29T14:34:35.823Z,5.50
2022-11-29T14:37:09.871Z,5.85
2022-11-29T14:39:46.815Z,5.97
2022-11-29T14:42:18.792Z,5.20
2022-11-29T14:44:52.664Z,8.35
2022-11-29T14:47:26.394Z,9.05
2022-11-29T14:49:56.825Z,9.10
2022-11-29T14:52:30.762Z,5.55
2022-11-29T14:55:03.743Z,4.95
2022-11-29T14:58:15.468Z,4.80
2022-11-29T15:01:08.065Z,9.27
2022-11-29T15:03:48.354Z,5.63
2022-11-29T15:06:24.395Z,8.48
2022-11-29T15:08:58.595Z,2.95
2022-11-29T15:11:36.755Z,2.35
2022-11-29T15:14:08.572Z,3.22
2022-11-29T15:19:45.129Z,2.97
2022-11-29T15:24:52.951Z,3.88
2022-11-29T15:27:21.568Z,4.50
2022-11-29T15:29:50.527Z,3.22
2022-11-29T15:32:25.719Z,3.53
2022-11-29T15:34:57.158Z,5.47
2022-11-29T15:37:39.967Z,7.90
2022-11-29T15:40:13.414Z,5.78
2022-11-29T15:42:44.409Z,7.38
2022-11-29T15:45:33.795Z,9.00
2022-11-29T15:48:20.369Z,15.98
2022-11-29T15:51:05.058Z,16.50
2022-11-29T15:53:38.664Z,14.30
2022-11-29T15:56:13.703Z,14.00
2022-11-29T15:58:42.387Z,14.45
2022-11-29T16:01:22.234Z,8.30
2022-11-29T16:03:54.495Z,9.85
2022-11-29T16:06:28.928Z,8.90
2022-11-29T16:08:57.399Z,7.60
2022-11-29T16:11:28.147Z,7.80
2022-11-29T16:14:04.590Z,6.93
2022-11-29T16:16:35.545Z,7.32
2022-11-29T16:19:12.269Z,10.77
2022-11-29T16:21:45.523Z,8.52
2022-11-29T16:24:15.121Z,5.82
2022-11-29T16:26:45.525Z,7.65
2022-11-29T16:29:24.563Z,7.93
2022-11-29T16:31:54.046Z,6.40
2022-11-29T16:34:27.625Z,8.27
2022-11-29T16:37:06.360Z,7.38
2022-11-29T16:39:36.291Z,7.43
2022-11-29T16:42:14.720Z,7.68
2022-11-29T16:45:05.044Z,11.20
2022-11-29T16:47:47.718Z,13.82
2022-11-29T16:50:20.627Z,12.15
2022-11-29T16:52:56.267Z,13.07
2022-11-29T16:55:25.572Z,14.50
2022-11-29T16:57:53.781Z,17.88
2022-11-29T17:00:31.048Z,16.02
2022-11-29T17:02:59.626Z,16.45
2022-11-29T17:05:28.328Z,17.90
2022-11-29T17:07:58.057Z,15.80
2022-11-29T17:10:27.509Z,11.02
2022-11-29T17:12:55.698Z,8.70
2022-11-29T17:15:23.954Z,8.30
2022-11-29T17:17:52.175Z,8.43
2022-11-29T17:20:20.380Z,10.15
2022-11-29T17:22:48.627Z,6.72
2022-11-29T17:25:18.401Z,8.80
2022-11-29T17:27:46.652Z,11.60
2022-11-29T17:30:15.567Z,9.43
2022-11-29T17:32:43.793Z,9.60
2022-11-29T17:35:11.985Z,10.52
2022-11-29T17:37:40.167Z,9.18
2022-11-29T17:40:10.008Z,7.68
2022-11-29T17:42:39.693Z,7.72
2022-11-29T17:45:09.020Z,5.00
2022-11-29T17:47:37.263Z,5.18
2022-11-29T17:50:06.518Z,5.88
2022-11-29T17:52:34.719Z,4.47
2022-11-29T17:55:02.968Z,4.88
2022-11-29T17:57:31.133Z,4.35
2022-11-29T18:00:00.781Z,5.10
2022-11-29T18:02:29.073Z,6.25
2022-11-29T18:04:57.330Z,5.18
2022-11-29T18:07:25.585Z,7.68
2022-11-29T18:09:53.859Z,10.30
2022-11-29T18:12:22.533Z,10.40
2022-11-29T18:14:51.622Z,8.27
2022-11-29T18:17:21.196Z,11.48
2022-11-29T18:19:49.376Z,6.05
2022-11-29T18:22:17.619Z,7.57
2022-11-29T18:24:45.854Z,8.75
2022-11-29T18:27:14.054Z,4.72
2022-11-29T18:29:42.306Z,4.53
2022-11-29T18:32:10.612Z,4.07
2022-11-29T18:34:40.241Z,4.47
2022-11-29T18:37:12.414Z,5.00
2022-11-29T18:39:44.708Z,5.63
2022-11-29T18:42:13.062Z,6.18
2022-11-29T18:44:41.328Z,7.38
2022-11-29T18:47:09.517Z,9.50
2022-11-29T18:49:39.164Z,10.82
2022-11-29T18:52:07.447Z,11.75
2022-11-29T18:54:35.686Z,11.10
2022-11-29T18:57:04.334Z,10.13
2022-11-29T18:59:32.611Z,13.90
2022-11-29T19:02:00.817Z,12.73
2022-11-29T19:04:29.057Z,10.55
2022-11-29T19:06:58.645Z,11.38
2022-11-29T19:09:27.153Z,10.13
2022-11-29T19:11:55.367Z,9.38
2022-11-29T19:14:23.646Z,9.55
2022-11-29T19:16:51.893Z,9.10
2022-11-29T19:19:20.182Z,8.70
2022-11-29T19:21:48.791Z,10.90
2022-11-29T19:24:19.569Z,6.63
2022-11-29T19:26:49.010Z,7.93
2022-11-29T19:29:18.027Z,10.32
2022-11-29T19:31:46.296Z,11.50
2022-11-29T19:34:14.775Z,12.35
2022-11-29T19:36:44.479Z,13.05
2022-11-29T19:39:14.472Z,12.18
2022-11-29T19:41:45.848Z,12.40
2022-11-29T19:44:14.152Z,9.73
2022-11-29T19:46:45.648Z,10.57
2022-11-29T19:49:14.374Z,13.18
2022-11-29T19:51:43.080Z,8.65
2022-11-29T19:54:12.033Z,9.82
2022-11-29T19:56:40.486Z,6.00
2022-11-29T19:59:10.987Z,6.60
2022-11-29T20:01:42.290Z,7.22
2022-11-29T20:04:11.855Z,5.47
2022-11-29T20:06:40.868Z,5.97
2022-11-29T20:09:09.183Z,7.00
2022-11-29T20:11:37.915Z,5.90
2022-11-29T20:14:08.159Z,5.60
2022-11-29T20:16:39.259Z,6.57
2022-11-29T20:19:11.398Z,5.47
2022-11-29T20:21:44.023Z,5.32
2022-11-29T20:24:14.337Z,5.85
2022-11-29T20:26:45.156Z,6.05
2022-11-29T20:29:14.244Z,4.93
2022-11-29T20:31:50.083Z,5.70
2022-11-29T20:34:19.851Z,7.47
2022-11-29T20:37:09.321Z,14.32
2022-11-29T20:39:45.128Z,10.52
2022-11-29T20:42:46.821Z,11.02
2022-11-29T20:45:16.769Z,11.25
2022-11-29T20:47:52.623Z,8.25
2022-11-29T20:50:24.045Z,5.22
2022-11-29T20:53:04.775Z,3.53
2022-11-29T20:55:33.003Z,4.97
2022-11-29T20:58:01.526Z,5.25
2022-11-29T21:00:29.762Z,6.28
2022-11-29T21:02:59.407Z,5.68
2022-11-29T21:05:28.055Z,6.68
2022-11-29T21:07:56.319Z,7.93
2022-11-29T21:10:24.608Z,8.25
2022-11-29T21:12:53.430Z,5.93
2022-11-29T21:15:22.703Z,5.28
2022-11-29T21:17:51.455Z,3.80
2022-11-29T21:20:24.274Z,4.13
2022-11-29T21:22:59.916Z,3.60
2022-11-29T21:25:37.822Z,3.00
2022-11-29T21:28:11.841Z,4.65
2022-11-29T21:30:40.778Z,2.80
2022-11-29T21:33:10.481Z,3.00
2022-11-29T21:35:40.591Z,2.67
2022-11-29T21:38:14.447Z,4.13
2022-11-29T21:40:42.654Z,2.90
2022-11-29T21:43:10.841Z,4.25
2022-11-29T21:45:39.013Z,2.85
2022-11-29T21:48:28.991Z,2.92
2022-11-29T21:50:58.646Z,2.05
2022-11-29T21:53:28.021Z,2.35
2022-11-29T21:56:00.155Z,2.10
2022-11-29T21:58:31.503Z,2.15
2022-11-29T22:01:07.110Z,1.90
2022-11-29T22:03:35.367Z,1.85
2022-11-29T22:06:07.131Z,1.85
2022-11-29T22:11:06.000Z,2.65
2022-11-29T22:13:34.224Z,2.58
2022-11-29T22:16:07.913Z,1.70
2022-11-29T22:18:36.262Z,4.22
2022-11-29T22:21:08.164Z,4.43
2022-11-29T22:23:36.378Z,6.50
2022-11-29T22:26:06.096Z,4.25
2022-11-29T22:28:35.483Z,2.38
2022-11-29T22:31:06.769Z,3.47
2022-11-29T22:33:35.647Z,4.53
2022-11-29T22:36:07.249Z,4.90
2022-11-29T22:38:35.933Z,2.83
2022-11-29T22:41:05.313Z,2.42
2022-11-29T22:43:34.276Z,3.00
2022-11-29T22:46:06.995Z,4.03
2022-11-29T22:48:38.761Z,2.55
2022-11-29T22:51:10.451Z,2.78
2022-11-29T22:53:40.702Z,5.07
2022-11-29T22:56:11.341Z,3.28
2022-11-29T22:58:40.091Z,2.55
2022-11-29T23:01:10.697Z,1.90
2022-11-29T23:03:40.445Z,3.33
2022-11-29T23:06:11.944Z,3.78
2022-11-29T23:08:41.232Z,2.33
2022-11-29T23:11:12.451Z,2.00
2022-11-29T23:13:41.859Z,2.38
2022-11-29T23:16:12.875Z,3.05
2022-11-29T23:18:42.321Z,2.75
2022-11-29T23:21:14.590Z,2.40
2022-11-29T23:23:43.793Z,4.15
2022-11-29T23:26:19.640Z,1.52
2022-11-29T23:28:48.426Z,2.97
2022-11-29T23:31:17.211Z,1.95
2022-11-29T23:33:45.641Z,2.42
2022-11-29T23:36:16.463Z,2.70
2022-11-29T23:38:44.966Z,2.53
2022-11-29T23:41:14.363Z,2.10
2022-11-29T23:43:43.219Z,2.20
2022-11-29T23:46:14.363Z,1.52
2022-11-29T23:48:42.820Z,2.58
2022-11-29T23:51:11.543Z,2.30
2022-11-29T23:53:41.295Z,2.63
2022-11-29T23:56:12.807Z,1.92
2022-11-29T23:58:41.384Z,2.33
